sensor_id;sensor_type;location;lat;lon;timestamp;pressure;altitude;pressure_sealevel;temperature;humidity
62111;BME280;48102;47.526;19.072;2022-09-12T03:39:50;100242.34;;;13.09;100.00
62111;BME280;48102;47.526;19.072;2022-09-12T03:42:53;100242.34;;;13.09;100.00
62111;BME280;48102;47.526;19.072;2022-09-12T03:45:55;100239.84;;;12.63;100.00
62111;BME280;48102;47.526;19.072;2022-09-12T03:48:58;100235.69;;;12.73;100.00
62111;BME280;48102;47.526;19.072;2022-09-12T03:52:01;100245.06;;;12.79;100.00
62111;BME280;48102;47.526;19.072;2022-09-12T03:55:04;100237.16;;;12.79;100.00
62111;BME280;48102;47.526;19.072;2022-09-12T03:58:07;100242.78;;;12.73;100.00
62111;BME280;48102;47.526;19.072;2022-09-12T04:01:13;100237.31;;;12.76;100.00
62111;BME280;48102;47.526;19.072;2022-09-12T04:04:16;100245.81;;;12.81;100.00
62111;BME280;48102;47.526;19.072;2022-09-12T04:07:19;100242.72;;;12.89;100.00
62111;BME280;48102;47.526;19.072;2022-09-12T04:10:25;100241.88;;;12.88;100.00
62111;BME280;48102;47.526;19.072;2022-09-12T04:13:28;100243.38;;;12.92;100.00
62111;BME280;48102;47.526;19.072;2022-09-12T04:16:31;100253.13;;;12.92;100.00
62111;BME280;48102;47.526;19.072;2022-09-12T04:19:34;100249.25;;;12.97;100.00
62111;BME280;48102;47.526;19.072;2022-09-12T04:22:37;100245.75;;;12.97;100.00
62111;BME280;48102;47.526;19.072;2022-09-12T04:25:39;100246.09;;;12.91;100.00
62111;BME280;48102;47.526;19.072;2022-09-12T04:28:43;100257.28;;;12.96;100.00
62111;BME280;48102;47.526;19.072;2022-09-12T04:31:45;100253.50;;;13.00;100.00
62111;BME280;48102;47.526;19.072;2022-09-12T04:34:48;100257.28;;;12.96;100.00
62111;BME280;48102;47.526;19.072;2022-09-12T04:37:51;100253.56;;;12.98;100.00
62111;BME280;48102;47.526;19.072;2022-09-12T04:40:54;100251.88;;;13.12;100.00
62111;BME280;48102;47.526;19.072;2022-09-12T04:44:00;100248.50;;;13.10;100.00
62111;BME280;48102;47.526;19.072;2022-09-12T04:47:04;100255.38;;;13.12;100.00
62111;BME280;48102;47.526;19.072;2022-09-12T04:50:07;100252.94;;;13.23;100.00
62111;BME280;48102;47.526;19.072;2022-09-12T04:53:10;100260.97;;;13.36;100.00
62111;BME280;48102;47.526;19.072;2022-09-12T04:56:12;100253.31;;;13.46;100.00
62111;BME280;48102;47.526;19.072;2022-09-12T04:59:16;100258.31;;;13.50;100.00
62111;BME280;48102;47.526;19.072;2022-09-12T05:02:19;100254.22;;;13.59;100.00
62111;BME280;48102;47.526;19.072;2022-09-12T05:05:22;100263.87;;;13.60;100.00
62111;BME280;48102;47.526;19.072;2022-09-12T05:08:25;100256.50;;;13.65;100.00
62111;BME280;48102;47.526;19.072;2022-09-12T05:11:31;100255.50;;;13.80;100.00
62111;BME280;48102;47.526;19.072;2022-09-12T05:14:53;100265.06;;;13.83;100.00
62111;BME280;48102;47.526;19.072;2022-09-12T05:17:56;100265.50;;;13.90;100.00
62111;BME280;48102;47.526;19.072;2022-09-12T05:21:00;100257.94;;;14.11;100.00
62111;BME280;48102;47.526;19.072;2022-09-12T05:24:03;100267.31;;;14.29;100.00
62111;BME280;48102;47.526;19.072;2022-09-12T05:27:08;100268.31;;;14.41;100.00
62111;BME280;48102;47.526;19.072;2022-09-12T05:30:11;100275.38;;;14.54;100.00
62111;BME280;48102;47.526;19.072;2022-09-12T05:33:14;100283.16;;;14.70;100.00
62111;BME280;48102;47.526;19.072;2022-09-12T05:36:22;100290.47;;;14.79;100.00
62111;BME280;48102;47.526;19.072;2022-09-12T05:39:25;100296.34;;;15.10;100.00
62111;BME280;48102;47.526;19.072;2022-09-12T05:42:29;100298.44;;;15.30;100.00
62111;BME280;48102;47.526;19.072;2022-09-12T05:45:31;100312.09;;;15.63;98.12
62111;BME280;48102;47.526;19.072;2022-09-12T05:48:35;100305.31;;;15.71;97.03
62111;BME280;48102;47.526;19.072;2022-09-12T05:51:41;100311.69;;;15.82;96.89
62111;BME280;48102;47.526;19.072;2022-09-12T05:54:44;100304.34;;;15.85;95.62
62111;BME280;48102;47.526;19.072;2022-09-12T05:57:49;100304.50;;;15.95;95.07
62111;BME280;48102;47.526;19.072;2022-09-12T06:00:52;100302.50;;;15.98;95.44
62111;BME280;48102;47.526;19.072;2022-09-12T06:03:56;100303.97;;;16.02;93.38
62111;BME280;48102;47.526;19.072;2022-09-12T06:07:01;100310.28;;;16.13;94.36
62111;BME280;48102;47.526;19.072;2022-09-12T06:10:04;100308.28;;;16.27;91.80
62111;BME280;48102;47.526;19.072;2022-09-12T06:13:07;100297.22;;;16.34;91.84
62111;BME280;48102;47.526;19.072;2022-09-12T06:16:19;100309.22;;;16.39;90.65
62111;BME280;48102;47.526;19.072;2022-09-12T06:19:23;100302.56;;;16.45;87.86
62111;BME280;48102;47.526;19.072;2022-09-12T06:22:26;100312.56;;;16.54;88.95
62111;BME280;48102;47.526;19.072;2022-09-12T06:25:29;100313.66;;;16.63;88.85
62111;BME280;48102;47.526;19.072;2022-09-12T06:28:35;100309.84;;;16.78;87.20
62111;BME280;48102;47.526;19.072;2022-09-12T06:31:39;100319.31;;;16.82;85.47
62111;BME280;48102;47.526;19.072;2022-09-12T06:34:43;100317.25;;;16.86;85.71
62111;BME280;48102;47.526;19.072;2022-09-12T06:37:49;100315.09;;;16.91;84.76
62111;BME280;48102;47.526;19.072;2022-09-12T06:40:52;100325.97;;;16.88;85.22
62111;BME280;48102;47.526;19.072;2022-09-12T06:43:55;100332.78;;;17.03;84.42
62111;BME280;48102;47.526;19.072;2022-09-12T06:46:58;100333.91;;;17.12;82.80
62111;BME280;48102;47.526;19.072;2022-09-12T06:50:01;100323.75;;;17.28;82.74
62111;BME280;48102;47.526;19.072;2022-09-12T06:53:04;100323.75;;;17.39;81.97
62111;BME280;48102;47.526;19.072;2022-09-12T06:56:10;100326.06;;;17.55;81.67
62111;BME280;48102;47.526;19.072;2022-09-12T06:59:13;100333.69;;;17.48;79.59
62111;BME280;48102;47.526;19.072;2022-09-12T07:02:16;100317.19;;;17.66;79.71
62111;BME280;48102;47.526;19.072;2022-09-12T07:05:19;100317.47;;;17.85;78.62
62111;BME280;48102;47.526;19.072;2022-09-12T07:08:21;100319.06;;;17.88;76.50
62111;BME280;48102;47.526;19.072;2022-09-12T07:11:25;100323.00;;;18.04;77.17
62111;BME280;48102;47.526;19.072;2022-09-12T07:14:27;100327.56;;;18.25;77.01
62111;BME280;48102;47.526;19.072;2022-09-12T07:17:30;100334.03;;;18.43;76.25
62111;BME280;48102;47.526;19.072;2022-09-12T07:20:33;100331.03;;;18.69;74.65
62111;BME280;48102;47.526;19.072;2022-09-12T07:23:35;100329.56;;;18.76;71.90
62111;BME280;48102;47.526;19.072;2022-09-12T07:26:39;100336.00;;;18.94;70.65
62111;BME280;48102;47.526;19.072;2022-09-12T07:29:45;100335.56;;;19.31;69.90
62111;BME280;48102;47.526;19.072;2022-09-12T07:32:52;100332.25;;;19.69;66.44
62111;BME280;48102;47.526;19.072;2022-09-12T07:36:01;100342.50;;;20.14;65.79
62111;BME280;48102;47.526;19.072;2022-09-12T07:39:05;100341.38;;;19.76;64.82
62111;BME280;48102;47.526;19.072;2022-09-12T07:42:07;100348.53;;;19.15;66.98
62111;BME280;48102;47.526;19.072;2022-09-12T07:45:10;100348.53;;;19.15;67.03
62111;BME280;48102;47.526;19.072;2022-09-12T07:48:14;100346.50;;;19.28;68.05
62111;BME280;48102;47.526;19.072;2022-09-12T07:51:18;100347.81;;;19.64;66.19
62111;BME280;48102;47.526;19.072;2022-09-12T07:54:21;100346.97;;;19.64;65.29
62111;BME280;48102;47.526;19.072;2022-09-12T07:57:24;100342.75;;;19.61;65.75
62111;BME280;48102;47.526;19.072;2022-09-12T08:00:27;100343.19;;;19.66;64.89
62111;BME280;48102;47.526;19.072;2022-09-12T08:03:38;100335.19;;;19.66;63.87
62111;BME280;48102;47.526;19.072;2022-09-12T08:06:40;100342.84;;;19.60;63.50
62111;BME280;48102;47.526;19.072;2022-09-12T08:09:43;100343.97;;;19.88;63.49
62111;BME280;48102;47.526;19.072;2022-09-12T08:12:46;100348.31;;;20.39;61.76
62111;BME280;48102;47.526;19.072;2022-09-12T08:15:49;100341.59;;;20.73;60.26
62111;BME280;48102;47.526;19.072;2022-09-12T08:18:52;100343.81;;;21.07;58.91
62111;BME280;48102;47.526;19.072;2022-09-12T08:21:54;100346.66;;;20.86;59.32
62111;BME280;48102;47.526;19.072;2022-09-12T08:24:57;100346.25;;;20.52;61.23
62111;BME280;48102;47.526;19.072;2022-09-12T08:28:00;100349.19;;;20.49;60.53
62111;BME280;48102;47.526;19.072;2022-09-12T08:31:08;100343.41;;;20.53;60.19
62111;BME280;48102;47.526;19.072;2022-09-12T08:34:12;100340.84;;;20.42;60.69
62111;BME280;48102;47.526;19.072;2022-09-12T08:37:14;100341.53;;;20.44;62.19
62111;BME280;48102;47.526;19.072;2022-09-12T08:40:17;100344.22;;;20.44;61.91
62111;BME280;48102;47.526;19.072;2022-09-12T08:47:13;100342.66;;;20.42;61.04
62111;BME280;48102;47.526;19.072;2022-09-12T08:50:21;100336.78;;;20.58;60.43
62111;BME280;48102;47.526;19.072;2022-09-12T08:53:26;100345.22;;;20.72;59.70
62111;BME280;48102;47.526;19.072;2022-09-12T08:56:35;100341.72;;;20.82;60.71
62111;BME280;48102;47.526;19.072;2022-09-12T08:59:42;100338.56;;;21.05;59.69
62111;BME280;48102;47.526;19.072;2022-09-12T09:10:26;100338.81;;;21.22;56.17
62111;BME280;48102;47.526;19.072;2022-09-12T09:17:17;100330.91;;;21.40;55.31
62111;BME280;48102;47.526;19.072;2022-09-12T09:20:36;100327.22;;;21.50;53.70
62111;BME280;48102;47.526;19.072;2022-09-12T09:23:43;100329.28;;;21.57;53.86
62111;BME280;48102;47.526;19.072;2022-09-12T09:26:58;100324.81;;;21.75;55.62
62111;BME280;48102;47.526;19.072;2022-09-12T09:30:02;100325.16;;;21.72;53.90
62111;BME280;48102;47.526;19.072;2022-09-12T09:33:09;100314.38;;;21.99;54.16
62111;BME280;48102;47.526;19.072;2022-09-12T09:40:21;100327.03;;;21.89;50.73
62111;BME280;48102;47.526;19.072;2022-09-12T09:43:24;100325.75;;;22.11;51.55
62111;BME280;48102;47.526;19.072;2022-09-12T09:46:30;100323.34;;;22.18;50.12
62111;BME280;48102;47.526;19.072;2022-09-12T09:49:33;100322.19;;;22.20;50.23
62111;BME280;48102;47.526;19.072;2022-09-12T09:52:38;100324.22;;;22.54;50.88
62111;BME280;48102;47.526;19.072;2022-09-12T09:55:41;100319.69;;;23.16;50.22
62111;BME280;48102;47.526;19.072;2022-09-12T09:58:45;100320.06;;;23.56;48.74
62111;BME280;48102;47.526;19.072;2022-09-12T10:04:56;100319.88;;;22.97;48.69
62111;BME280;48102;47.526;19.072;2022-09-12T10:08:00;100323.66;;;22.50;49.99
62111;BME280;48102;47.526;19.072;2022-09-12T10:11:28;100315.72;;;23.02;49.24
62111;BME280;48102;47.526;19.072;2022-09-12T10:14:34;100320.84;;;23.48;47.53
62111;BME280;48102;47.526;19.072;2022-09-12T10:17:44;100323.50;;;23.66;46.06
62111;BME280;48102;47.526;19.072;2022-09-12T10:20:48;100325.94;;;22.99;47.14
62111;BME280;48102;47.526;19.072;2022-09-12T10:24:26;100318.75;;;22.64;48.05
62111;BME280;48102;47.526;19.072;2022-09-12T10:27:31;100327.31;;;22.14;51.24
62111;BME280;48102;47.526;19.072;2022-09-12T10:30:34;100322.25;;;21.46;50.50
62111;BME280;48102;47.526;19.072;2022-09-12T10:33:41;100326.44;;;21.58;49.77
62111;BME280;48102;47.526;19.072;2022-09-12T10:36:45;100323.81;;;22.03;49.47
62111;BME280;48102;47.526;19.072;2022-09-12T10:39:52;100321.75;;;22.43;49.37
62111;BME280;48102;47.526;19.072;2022-09-12T10:42:57;100318.87;;;22.80;47.92
62111;BME280;48102;47.526;19.072;2022-09-12T10:49:34;100315.81;;;23.71;47.51
62111;BME280;48102;47.526;19.072;2022-09-12T10:52:41;100312.75;;;23.74;45.83
62111;BME280;48102;47.526;19.072;2022-09-12T10:56:02;100323.62;;;23.98;45.25
62111;BME280;48102;47.526;19.072;2022-09-12T11:02:30;100303.22;;;24.63;45.26
62111;BME280;48102;47.526;19.072;2022-09-12T11:05:48;100312.34;;;24.62;43.77
62111;BME280;48102;47.526;19.072;2022-09-12T11:09:02;100300.59;;;24.12;44.74
62111;BME280;48102;47.526;19.072;2022-09-12T11:12:14;100301.78;;;24.18;43.50
62111;BME280;48102;47.526;19.072;2022-09-12T11:25:58;100289.50;;;23.04;46.33
62111;BME280;48102;47.526;19.072;2022-09-12T11:35:51;100297.69;;;23.89;46.59
62111;BME280;48102;47.526;19.072;2022-09-12T11:39:01;100300.31;;;24.23;46.29
62111;BME280;48102;47.526;19.072;2022-09-12T11:42:12;100289.06;;;24.69;43.79
62111;BME280;48102;47.526;19.072;2022-09-12T11:55:09;100297.59;;;23.65;43.24
62111;BME280;48102;47.526;19.072;2022-09-12T11:58:15;100294.59;;;23.08;46.29
62111;BME280;48102;47.526;19.072;2022-09-12T12:01:33;100291.78;;;22.73;47.96
62111;BME280;48102;47.526;19.072;2022-09-12T12:05:01;100293.22;;;22.42;47.95
62111;BME280;48102;47.526;19.072;2022-09-12T12:08:05;100296.50;;;22.18;49.01
62111;BME280;48102;47.526;19.072;2022-09-12T12:11:09;100289.78;;;22.04;50.05
62111;BME280;48102;47.526;19.072;2022-09-12T12:14:19;100286.38;;;22.29;48.97
62111;BME280;48102;47.526;19.072;2022-09-12T12:17:24;100290.78;;;22.92;50.39
62111;BME280;48102;47.526;19.072;2022-09-12T12:20:28;100279.03;;;23.53;45.13
62111;BME280;48102;47.526;19.072;2022-09-12T12:23:33;100272.69;;;24.05;45.97
62111;BME280;48102;47.526;19.072;2022-09-12T12:29:43;100276.28;;;24.46;44.89
62111;BME280;48102;47.526;19.072;2022-09-12T12:32:46;100279.66;;;24.40;43.82
62111;BME280;48102;47.526;19.072;2022-09-12T12:36:08;100274.22;;;24.24;42.72
62111;BME280;48102;47.526;19.072;2022-09-12T12:52:01;100272.38;;;25.14;42.11
62111;BME280;48102;47.526;19.072;2022-09-12T12:55:04;100275.13;;;26.47;40.06
62111;BME280;48102;47.526;19.072;2022-09-12T12:58:35;100265.78;;;30.42;33.06
62111;BME280;48102;47.526;19.072;2022-09-12T13:01:44;100255.41;;;29.84;31.66
62111;BME280;48102;47.526;19.072;2022-09-12T13:04:57;100274.66;;;28.85;33.94
62111;BME280;48102;47.526;19.072;2022-09-12T13:08:06;100261.19;;;27.11;37.18
62111;BME280;48102;47.526;19.072;2022-09-12T13:12:02;100268.13;;;28.52;35.68
62111;BME280;48102;47.526;19.072;2022-09-12T13:14:58;100264.13;;;30.61;32.52
62111;BME280;48102;47.526;19.072;2022-09-12T13:18:11;100266.16;;;31.38;31.03
62111;BME280;48102;47.526;19.072;2022-09-12T13:21:19;100269.69;;;32.35;28.45
62111;BME280;48102;47.526;19.072;2022-09-12T13:24:23;100273.09;;;35.40;26.29
62111;BME280;48102;47.526;19.072;2022-09-12T13:27:25;100260.47;;;39.68;20.79
62111;BME280;48102;47.526;19.072;2022-09-12T13:30:36;100252.50;;;39.71;19.76
62111;BME280;48102;47.526;19.072;2022-09-12T13:33:51;100247.72;;;38.61;20.46
62111;BME280;48102;47.526;19.072;2022-09-12T13:43:36;100226.34;;;34.17;25.64
62111;BME280;48102;47.526;19.072;2022-09-12T13:46:41;100221.69;;;31.58;28.19
62111;BME280;48102;47.526;19.072;2022-09-12T13:49:44;100223.81;;;28.23;31.91
62111;BME280;48102;47.526;19.072;2022-09-12T13:52:56;100212.66;;;30.26;29.94
62111;BME280;48102;47.526;19.072;2022-09-12T13:56:00;100220.97;;;36.37;23.01
62111;BME280;48102;47.526;19.072;2022-09-12T13:59:09;100211.41;;;39.80;19.29
62111;BME280;48102;47.526;19.072;2022-09-12T14:02:21;100219.44;;;42.76;16.45
62111;BME280;48102;47.526;19.072;2022-09-12T14:05:25;100219.94;;;44.45;14.53
62111;BME280;48102;47.526;19.072;2022-09-12T14:08:28;100223.37;;;46.02;13.26
62111;BME280;48102;47.526;19.072;2022-09-12T14:11:32;100213.25;;;46.82;12.79
62111;BME280;48102;47.526;19.072;2022-09-12T14:14:36;100202.41;;;44.12;12.79
62111;BME280;48102;47.526;19.072;2022-09-12T14:17:48;100209.09;;;44.76;13.84
62111;BME280;48102;47.526;19.072;2022-09-12T14:20:54;100209.75;;;46.45;12.77
62111;BME280;48102;47.526;19.072;2022-09-12T14:23:59;100197.59;;;44.50;13.45
62111;BME280;48102;47.526;19.072;2022-09-12T14:27:03;100192.44;;;40.55;16.85
62111;BME280;48102;47.526;19.072;2022-09-12T14:30:30;100193.88;;;37.35;19.89
62111;BME280;48102;47.526;19.072;2022-09-12T14:33:52;100185.06;;;33.77;22.46
62111;BME280;48102;47.526;19.072;2022-09-12T14:36:56;100166.88;;;31.34;25.87
62111;BME280;48102;47.526;19.072;2022-09-12T14:39:59;100167.06;;;30.28;26.18
62111;BME280;48102;47.526;19.072;2022-09-12T14:43:03;100161.78;;;29.19;28.63
62111;BME280;48102;47.526;19.072;2022-09-12T14:46:21;100168.09;;;28.35;29.62
62111;BME280;48102;47.526;19.072;2022-09-12T14:49:33;100169.66;;;27.65;29.37
62111;BME280;48102;47.526;19.072;2022-09-12T14:52:37;100168.28;;;27.55;29.44
62111;BME280;48102;47.526;19.072;2022-09-12T14:55:44;100173.50;;;27.92;29.98
62111;BME280;48102;47.526;19.072;2022-09-12T14:58:48;100167.38;;;29.17;27.63
62111;BME280;48102;47.526;19.072;2022-09-12T15:05:24;100183.44;;;35.24;20.33
62111;BME280;48102;47.526;19.072;2022-09-12T15:08:28;100182.34;;;38.47;17.22
62111;BME280;48102;47.526;19.072;2022-09-12T15:11:31;100184.78;;;39.33;16.86
62111;BME280;48102;47.526;19.072;2022-09-12T15:14:35;100187.72;;;40.04;15.09
62111;BME280;48102;47.526;19.072;2022-09-12T15:17:37;100189.63;;;40.70;15.11
